Time;durP1;ratioP1;P1;durP2;ratioP2;P2;SDS_P1;SDS_P2;PMS_P1;PMS_P2;Temp;Humidity;BMP_temperature;BMP_pressure;BME280_temperature;BME280_humidity;BME280_pressure;Samples;Min_cycle;Max_cycle;Signal;HPM_P1;HPM_P2
2023/01/03 00:01:44;;;;;;;91.82;46.25;;;;;;;;;;5019023;28;20079;-79
2023/01/03 00:04:10;;;;;;;113.93;58.20;;;;;;;;;;5036399;28;20029;-78
2023/01/03 00:06:38;;;;;;;119.80;60.50;;;;;;;;;;5036495;28;20489;-78
2023/01/03 00:09:05;;;;;;;119.50;59.67;;;;;;;;;;5018880;28;20033;-79
2023/01/03 00:14:18;;;;;;;110.10;54.13;;;;;;;;;;5035310;28;20481;-78
2023/01/03 00:16:44;;;;;;;110.15;51.83;;;;;;;;;;5036477;28;20037;-77
2023/01/03 00:19:11;;;;;;;106.30;50.72;;;;;;;;;;5002686;28;20037;-77
2023/01/03 00:21:36;;;;;;;104.85;52.50;;;;;;;;;;5036217;28;20025;-77
2023/01/03 00:24:02;;;;;;;107.47;55.03;;;;;;;;;;5036094;28;20157;-77
2023/01/03 00:26:28;;;;;;;108.18;50.25;;;;;;;;;;5036180;28;20040;-77
2023/01/03 00:28:53;;;;;;;105.53;51.38;;;;;;;;;;5036320;28;20029;-78
2023/01/03 00:31:19;;;;;;;101.35;49.90;;;;;;;;;;5035433;28;20048;-77
2023/01/03 00:33:44;;;;;;;102.07;49.40;;;;;;;;;;5044761;28;20124;-77
2023/01/03 00:36:10;;;;;;;98.40;47.17;;;;;;;;;;5049294;28;20120;-77
2023/01/03 00:38:35;;;;;;;93.35;46.90;;;;;;;;;;5056989;28;20033;-76
2023/01/03 00:41:12;;;;;;;99.88;49.70;;;;;;;;;;5056944;28;20347;-77
2023/01/03 00:43:39;;;;;;;132.73;66.80;;;;;;;;;;5056183;28;20037;-77
2023/01/03 00:46:05;;;;;;;106.93;52.80;;;;;;;;;;5055350;28;20039;-76
2023/01/03 00:48:30;;;;;;;109.75;53.58;;;;;;;;;;5054735;28;20373;-77
2023/01/03 00:50:56;;;;;;;101.80;50.88;;;;;;;;;;5021361;28;20029;-77
2023/01/03 00:53:21;;;;;;;116.72;52.42;;;;;;;;;;5054047;28;20029;-76
2023/01/03 00:55:47;;;;;;;110.63;55.22;;;;;;;;;;5037789;28;20500;-77
2023/01/03 00:58:12;;;;;;;107.75;52.40;;;;;;;;;;5055882;28;20037;-77
2023/01/03 01:00:38;;;;;;;107.88;51.17;;;;;;;;;;5037944;28;20370;-77
2023/01/03 01:03:03;;;;;;;111.07;53.90;;;;;;;;;;5021968;28;20394;-77
2023/01/03 01:05:29;;;;;;;105.68;51.60;;;;;;;;;;5046079;28;20025;-76
2023/01/03 01:07:55;;;;;;;118.28;56.25;;;;;;;;;;5065107;28;20567;-76
2023/01/03 01:10:21;;;;;;;111.30;52.25;;;;;;;;;;5055862;28;20128;-77
2023/01/03 01:12:47;;;;;;;103.22;51.45;;;;;;;;;;5055987;28;20406;-77
2023/01/03 01:15:12;;;;;;;111.80;53.50;;;;;;;;;;5056080;28;20021;-77
2023/01/03 01:17:38;;;;;;;110.55;54.15;;;;;;;;;;5037280;28;20452;-77
2023/01/03 01:20:04;;;;;;;107.93;53.78;;;;;;;;;;5037164;28;20025;-77
2023/01/03 01:22:29;;;;;;;111.22;53.42;;;;;;;;;;5055145;28;20068;-75
2023/01/03 01:24:55;;;;;;;107.10;51.47;;;;;;;;;;5037292;28;20064;-76
2023/01/03 01:27:21;;;;;;;109.15;54.20;;;;;;;;;;5053662;28;20048;-76
2023/01/03 01:29:46;;;;;;;99.32;49.10;;;;;;;;;;5051602;28;20041;-77
2023/01/03 01:32:12;;;;;;;108.15;51.58;;;;;;;;;;5017046;28;20674;-77
2023/01/03 01:34:37;;;;;;;108.10;51.55;;;;;;;;;;5017073;28;20037;-77
2023/01/03 01:37:03;;;;;;;108.30;52.45;;;;;;;;;;5033424;28;20030;-79
2023/01/03 01:39:28;;;;;;;115.63;56.33;;;;;;;;;;5017451;28;20370;-78
2023/01/03 01:44:47;;;;;;;126.10;62.88;;;;;;;;;;5034729;28;20671;-77
2023/01/03 01:47:28;;;;;;;150.32;72.40;;;;;;;;;;5034679;28;20033;-77
2023/01/03 01:50:14;;;;;;;177.85;86.15;;;;;;;;;;5018651;28;20124;-76
2023/01/03 01:52:43;;;;;;;173.80;86.82;;;;;;;;;;5019362;28;20113;-79
2023/01/03 01:55:15;;;;;;;176.73;90.30;;;;;;;;;;5017274;28;20097;-78
2023/01/03 01:57:40;;;;;;;178.02;86.47;;;;;;;;;;5033637;28;20088;-77
2023/01/03 02:00:07;;;;;;;177.77;84.47;;;;;;;;;;5034731;28;20041;-78
2023/01/03 02:02:32;;;;;;;153.23;76.70;;;;;;;;;;5033176;28;20069;-78
2023/01/03 02:04:58;;;;;;;147.55;69.25;;;;;;;;;;5033352;28;20072;-78
2023/01/03 02:07:23;;;;;;;152.32;74.53;;;;;;;;;;5033977;28;20120;-79
2023/01/03 02:09:51;;;;;;;131.65;62.35;;;;;;;;;;5034529;28;20387;-78
2023/01/03 02:15:46;;;;;;;124.72;59.88;;;;;;;;;;5018948;28;20525;-76
2023/01/03 02:18:15;;;;;;;125.63;59.60;;;;;;;;;;5034440;28;20160;-76
2023/01/03 02:21:04;;;;;;;129.02;61.03;;;;;;;;;;5034063;28;20049;-77
2023/01/03 02:23:54;;;;;;;116.57;55.83;;;;;;;;;;5034281;28;20087;-78
2023/01/03 02:26:57;;;;;;;111.55;52.88;;;;;;;;;;5034238;28;20503;-79
2023/01/03 02:29:31;;;;;;;103.30;49.72;;;;;;;;;;5033845;28;20378;-78
2023/01/03 02:32:05;;;;;;;109.68;51.35;;;;;;;;;;5034094;28;20104;-77
2023/01/03 02:34:55;;;;;;;96.47;50.40;;;;;;;;;;5000399;28;20048;-77
2023/01/03 02:37:27;;;;;;;104.40;52.20;;;;;;;;;;5034255;28;20111;-78
2023/01/03 02:40:19;;;;;;;104.40;53.15;;;;;;;;;;5034368;28;20576;-77
2023/01/03 02:43:01;;;;;;;111.97;56.17;;;;;;;;;;5016529;28;20037;-77
2023/01/03 02:46:11;;;;;;;137.27;62.95;;;;;;;;;;5034344;28;20037;-78
2023/01/03 02:49:14;;;;;;;158.93;62.53;;;;;;;;;;4953650;29;20043;-78
2023/01/03 02:51:44;;;;;;;137.32;59.78;;;;;;;;;;5030581;28;20077;-78
2023/01/03 02:54:11;;;;;;;126.32;58.65;;;;;;;;;;5032496;28;20470;-78
2023/01/03 02:56:39;;;;;;;124.80;55.92;;;;;;;;;;5016422;28;20033;-78
2023/01/03 02:59:07;;;;;;;130.95;58.83;;;;;;;;;;4999959;28;20033;-78
2023/01/03 03:01:32;;;;;;;146.15;58.35;;;;;;;;;;5016289;28;20041;-78
2023/01/03 03:03:58;;;;;;;145.18;57.30;;;;;;;;;;5016054;28;20032;-76
2023/01/03 03:06:57;;;;;;;156.75;57.25;;;;;;;;;;5000244;28;20026;-78
2023/01/03 03:09:23;;;;;;;152.80;56.90;;;;;;;;;;5035933;28;20386;-78
2023/01/03 03:14:36;;;;;;;131.52;55.47;;;;;;;;;;5024199;28;20072;-78
2023/01/03 03:17:19;;;;;;;138.55;56.78;;;;;;;;;;5024306;28;20030;-78
2023/01/03 03:25:20;;;;;;;135.43;59.83;;;;;;;;;;5037663;28;20040;-78
2023/01/03 03:30:31;;;;;;;120.13;55.97;;;;;;;;;;5038548;28;20060;-78
2023/01/03 03:33:00;;;;;;;124.22;57.40;;;;;;;;;;5036280;28;20338;-78
2023/01/03 03:35:25;;;;;;;115.80;51.80;;;;;;;;;;5021436;28;20044;-77
2023/01/03 03:37:53;;;;;;;109.53;52.25;;;;;;;;;;5023636;28;20029;-76
2023/01/03 03:46:31;;;;;;;111.13;51.63;;;;;;;;;;5037648;28;20469;-76
2023/01/03 03:51:46;;;;;;;108.53;49.60;;;;;;;;;;5030090;28;19919;-78
2023/01/03 03:54:13;;;;;;;108.43;51.22;;;;;;;;;;5038932;28;20037;-77
2023/01/03 03:56:38;;;;;;;104.97;51.00;;;;;;;;;;5019774;28;20128;-77
2023/01/03 03:59:05;;;;;;;114.05;53.20;;;;;;;;;;5019596;28;20057;-77
2023/01/03 04:01:31;;;;;;;113.30;52.47;;;;;;;;;;5019025;28;20065;-77
2023/01/03 04:03:57;;;;;;;120.63;55.53;;;;;;;;;;5036537;28;20034;-78
2023/01/03 04:06:26;;;;;;;117.35;55.80;;;;;;;;;;5035795;28;20112;-77
2023/01/03 04:08:51;;;;;;;118.85;55.08;;;;;;;;;;5035640;28;20033;-78
2023/01/03 04:11:17;;;;;;;115.55;55.17;;;;;;;;;;5036859;28;20454;-75
2023/01/03 04:13:42;;;;;;;120.45;55.58;;;;;;;;;;5019520;28;20029;-76
2023/01/03 04:16:07;;;;;;;111.25;52.97;;;;;;;;;;5037448;28;20446;-76
2023/01/03 04:18:33;;;;;;;108.45;53.40;;;;;;;;;;5039386;28;20080;-75
2023/01/03 04:20:58;;;;;;;114.95;52.05;;;;;;;;;;5028103;28;20029;-76
2023/01/03 04:23:24;;;;;;;114.20;54.30;;;;;;;;;;5045560;28;20041;-76
2023/01/03 04:25:49;;;;;;;117.50;54.38;;;;;;;;;;5037996;28;20029;-76
2023/01/03 04:28:15;;;;;;;111.38;54.42;;;;;;;;;;5037717;28;20144;-76
2023/01/03 04:30:41;;;;;;;113.68;53.85;;;;;;;;;;5046596;28;20061;-76
2023/01/03 04:33:06;;;;;;;114.45;53.30;;;;;;;;;;5055977;28;20036;-76
2023/01/03 04:35:32;;;;;;;99.97;51.70;;;;;;;;;;5040643;28;20131;-76
2023/01/03 04:37:57;;;;;;;125.43;60.00;;;;;;;;;;5058814;28;20047;-77
2023/01/03 04:40:23;;;;;;;122.05;58.25;;;;;;;;;;5058744;28;20113;-77
2023/01/03 04:45:33;;;;;;;165.38;76.50;;;;;;;;;;5058983;28;20136;-76
2023/01/03 04:47:58;;;;;;;172.57;74.65;;;;;;;;;;5059343;28;20044;-77
2023/01/03 04:50:23;;;;;;;167.10;74.03;;;;;;;;;;5059599;28;20029;-75
2023/01/03 04:52:49;;;;;;;183.88;80.47;;;;;;;;;;5042118;28;20033;-76
2023/01/03 04:55:15;;;;;;;260.50;83.60;;;;;;;;;;5074819;28;20135;-77
2023/01/03 04:57:40;;;;;;;195.02;85.30;;;;;;;;;;5041007;28;20048;-77
2023/01/03 05:00:07;;;;;;;197.63;82.72;;;;;;;;;;5037769;28;20040;-76
2023/01/03 05:02:32;;;;;;;181.38;77.63;;;;;;;;;;5038042;28;20039;-77
2023/01/03 05:04:58;;;;;;;164.00;76.05;;;;;;;;;;5055969;28;20025;-77
2023/01/03 05:07:25;;;;;;;152.43;72.50;;;;;;;;;;5056413;28;20056;-77
2023/01/03 05:09:51;;;;;;;146.23;70.15;;;;;;;;;;5038665;28;20029;-78
2023/01/03 05:12:16;;;;;;;142.85;68.00;;;;;;;;;;5038028;28;20033;-78
2023/01/03 05:14:42;;;;;;;145.30;69.20;;;;;;;;;;5056520;28;20671;-78
2023/01/03 05:17:07;;;;;;;137.90;67.20;;;;;;;;;;5056657;28;20037;-78
2023/01/03 05:19:33;;;;;;;143.85;69.50;;;;;;;;;;5055820;28;20029;-78
2023/01/03 05:27:26;;;;;;;151.40;72.90;;;;;;;;;;5055687;28;20039;-78
2023/01/03 05:29:51;;;;;;;159.13;72.60;;;;;;;;;;5036881;28;20049;-78
2023/01/03 05:32:17;;;;;;;151.50;75.88;;;;;;;;;;5036992;28;20040;-78
2023/01/03 05:34:42;;;;;;;176.60;80.95;;;;;;;;;;5037173;28;20036;-78
2023/01/03 05:37:08;;;;;;;172.77;83.20;;;;;;;;;;5054744;28;20033;-79
2023/01/03 05:39:33;;;;;;;190.70;86.53;;;;;;;;;;5053527;28;20111;-79
2023/01/03 05:41:59;;;;;;;192.65;91.68;;;;;;;;;;5054863;28;20031;-79
2023/01/03 05:44:34;;;;;;;214.50;103.22;;;;;;;;;;5056542;28;20132;-78
2023/01/03 05:47:00;;;;;;;216.50;101.60;;;;;;;;;;5074754;28;20036;-78
2023/01/03 05:49:26;;;;;;;214.88;101.57;;;;;;;;;;5069675;28;20445;-78
2023/01/03 05:51:51;;;;;;;224.95;102.65;;;;;;;;;;5065064;28;20115;-78
2023/01/03 05:54:18;;;;;;;186.80;84.15;;;;;;;;;;5071460;28;20040;-76
2023/01/03 05:56:53;;;;;;;199.02;94.43;;;;;;;;;;5049765;28;20047;-77
2023/01/03 05:59:19;;;;;;;181.00;82.78;;;;;;;;;;5019168;28;20041;-79
2023/01/03 06:01:45;;;;;;;188.77;83.05;;;;;;;;;;5048668;28;20032;-77
2023/01/03 06:04:10;;;;;;;179.48;79.30;;;;;;;;;;5029632;28;20037;-79
2023/01/03 06:06:36;;;;;;;160.35;68.35;;;;;;;;;;5063459;28;20043;-76
2023/01/03 06:09:06;;;;;;;177.95;75.55;;;;;;;;;;5050029;28;20139;-79
2023/01/03 06:11:35;;;;;;;162.88;71.93;;;;;;;;;;5067828;28;20040;-79
2023/01/03 06:14:01;;;;;;;157.77;69.53;;;;;;;;;;5064863;28;20070;-79
2023/01/03 06:19:11;;;;;;;170.27;69.00;;;;;;;;;;5062585;28;20504;-75
2023/01/03 06:21:36;;;;;;;166.63;70.10;;;;;;;;;;5050893;28;20036;-77
2023/01/03 06:24:02;;;;;;;161.68;71.05;;;;;;;;;;5071017;28;20668;-78
2023/01/03 06:26:29;;;;;;;173.48;73.18;;;;;;;;;;5052235;28;20036;-76
2023/01/03 06:28:54;;;;;;;176.30;74.65;;;;;;;;;;5051974;28;20044;-78
2023/01/03 06:31:20;;;;;;;168.75;72.88;;;;;;;;;;5054678;28;20029;-77
2023/01/03 06:33:46;;;;;;;158.88;69.63;;;;;;;;;;5019190;28;20072;-76
2023/01/03 06:36:12;;;;;;;165.35;71.82;;;;;;;;;;5017497;28;20528;-78
2023/01/03 06:38:38;;;;;;;164.48;74.03;;;;;;;;;;5035835;28;20029;-78
2023/01/03 06:41:04;;;;;;;162.75;75.45;;;;;;;;;;5053357;28;20028;-78
2023/01/03 06:43:34;;;;;;;163.27;76.60;;;;;;;;;;5054986;28;20037;-77
2023/01/03 06:54:25;;;;;;;196.15;93.30;;;;;;;;;;5031145;28;20551;-78
2023/01/03 06:56:51;;;;;;;181.13;84.20;;;;;;;;;;5021195;28;20040;-78
2023/01/03 06:59:23;;;;;;;169.95;83.75;;;;;;;;;;5037761;28;20032;-77
2023/01/03 07:01:49;;;;;;;171.18;87.78;;;;;;;;;;5057329;28;20036;-77
2023/01/03 07:04:16;;;;;;;160.65;77.60;;;;;;;;;;5050960;28;20115;-76
2023/01/03 07:06:44;;;;;;;161.88;78.15;;;;;;;;;;5019821;28;20029;-78
2023/01/03 07:09:11;;;;;;;153.43;73.68;;;;;;;;;;5005273;28;20386;-77
2023/01/03 07:11:36;;;;;;;149.50;69.55;;;;;;;;;;5007369;28;20029;-78
2023/01/03 07:14:02;;;;;;;161.63;78.05;;;;;;;;;;5058366;28;20125;-77
2023/01/03 07:16:33;;;;;;;156.65;78.22;;;;;;;;;;5057172;28;20478;-78
2023/01/03 07:19:45;;;;;;;158.48;78.25;;;;;;;;;;5049886;28;20056;-80
2023/01/03 07:22:17;;;;;;;166.95;77.50;;;;;;;;;;5034440;28;20048;-78
2023/01/03 07:24:45;;;;;;;151.77;77.45;;;;;;;;;;5056348;28;20138;-78
2023/01/03 07:27:11;;;;;;;150.43;74.68;;;;;;;;;;5047475;28;20048;-78
2023/01/03 07:29:37;;;;;;;168.32;77.68;;;;;;;;;;5078676;28;20042;-77
2023/01/03 07:32:03;;;;;;;150.27;76.63;;;;;;;;;;5050446;28;20115;-79
2023/01/03 07:34:34;;;;;;;200.55;94.50;;;;;;;;;;5053450;28;20052;-77
2023/01/03 07:37:00;;;;;;;191.20;96.25;;;;;;;;;;5060592;28;20056;-78
2023/01/03 07:39:28;;;;;;;216.20;103.70;;;;;;;;;;5063288;28;20033;-78
2023/01/03 07:44:38;;;;;;;236.52;114.85;;;;;;;;;;5058506;28;20052;-79
2023/01/03 07:47:03;;;;;;;225.02;109.40;;;;;;;;;;5051713;28;20454;-79
2023/01/03 07:49:32;;;;;;;210.43;104.03;;;;;;;;;;5057280;28;20450;-77
2023/01/03 07:51:57;;;;;;;182.30;93.70;;;;;;;;;;5039996;28;20432;-79
2023/01/03 07:54:25;;;;;;;162.60;86.45;;;;;;;;;;5066531;28;20036;-77
2023/01/03 07:56:51;;;;;;;158.73;80.03;;;;;;;;;;5071687;28;20040;-76
2023/01/03 07:59:20;;;;;;;113.63;55.40;;;;;;;;;;5048918;28;20466;-78
2023/01/03 08:01:45;;;;;;;116.22;55.80;;;;;;;;;;5038705;28;20044;-77
2023/01/03 08:04:11;;;;;;;98.97;48.97;;;;;;;;;;5023956;28;20028;-77
2023/01/03 08:06:36;;;;;;;149.15;72.38;;;;;;;;;;5044307;28;20114;-78
2023/01/03 08:14:30;;;;;;;38.05;21.20;;;;;;;;;;5068599;28;20024;-79
2023/01/03 08:16:58;;;;;;;29.42;14.90;;;;;;;;;;5086527;28;20028;-76
2023/01/03 08:19:24;;;;;;;28.17;15.30;;;;;;;;;;5053643;28;20498;-77
2023/01/03 08:21:49;;;;;;;31.35;15.95;;;;;;;;;;5053169;28;20086;-77
2023/01/03 08:24:15;;;;;;;32.80;16.17;;;;;;;;;;5076558;28;20032;-77
2023/01/03 08:26:40;;;;;;;32.38;17.00;;;;;;;;;;5057765;28;20534;-77
2023/01/03 08:29:06;;;;;;;22.63;12.85;;;;;;;;;;5056794;28;20146;-77
2023/01/03 08:31:32;;;;;;;22.55;11.57;;;;;;;;;;5039458;28;20061;-79
2023/01/03 08:34:00;;;;;;;23.80;10.13;;;;;;;;;;5036029;28;20033;-78
2023/01/03 08:36:26;;;;;;;23.25;10.63;;;;;;;;;;5036471;28;20079;-78
2023/01/03 08:39:07;;;;;;;18.35;10.65;;;;;;;;;;5040463;28;20148;-79
2023/01/03 08:41:35;;;;;;;19.05;10.15;;;;;;;;;;5034959;28;20033;-78
2023/01/03 08:44:01;;;;;;;14.88;8.35;;;;;;;;;;5052435;28;20033;-78
2023/01/03 08:46:26;;;;;;;17.00;8.70;;;;;;;;;;5051793;28;20028;-78
2023/01/03 08:49:04;;;;;;;;;;;;;;;;;;;;;
2023/01/03 08:51:30;;;;;;;15.73;7.95;;;;;;;;;;5049486;28;20043;-78
2023/01/03 08:53:56;;;;;;;16.38;7.43;;;;;;;;;;5056013;28;20123;-78
2023/01/03 08:56:43;;;;;;;19.08;8.20;;;;;;;;;;5044880;28;20453;-78
2023/01/03 08:59:12;;;;;;;15.90;8.70;;;;;;;;;;5015926;28;20056;-76
2023/01/03 09:01:39;;;;;;;17.65;7.45;;;;;;;;;;5033906;28;20604;-79
2023/01/03 09:04:04;;;;;;;19.25;7.60;;;;;;;;;;5043910;28;20437;-79
2023/01/03 09:06:30;;;;;;;15.13;7.60;;;;;;;;;;5023317;28;20033;-78
2023/01/03 09:08:56;;;;;;;15.57;8.43;;;;;;;;;;5067972;28;20024;-75
2023/01/03 09:11:21;;;;;;;13.60;6.90;;;;;;;;;;5056690;28;20040;-78
2023/01/03 09:13:47;;;;;;;20.75;7.78;;;;;;;;;;5017616;28;20028;-79
2023/01/03 09:16:14;;;;;;;13.52;7.18;;;;;;;;;;5033190;28;20037;-77
2023/01/03 09:18:40;;;;;;;11.93;7.05;;;;;;;;;;5034117;28;20073;-77
2023/01/03 09:21:06;;;;;;;12.32;6.88;;;;;;;;;;5017598;28;20086;-80
2023/01/03 09:23:32;;;;;;;17.10;7.03;;;;;;;;;;5026545;28;20032;-77
2023/01/03 09:25:57;;;;;;;14.25;7.03;;;;;;;;;;5028418;28;20092;-76
2023/01/03 09:28:23;;;;;;;16.90;7.70;;;;;;;;;;5035879;28;20331;-77
2023/01/03 09:30:48;;;;;;;15.93;7.68;;;;;;;;;;5061890;28;20033;-78
2023/01/03 09:33:15;;;;;;;18.15;7.63;;;;;;;;;;5070197;28;20025;-76
2023/01/03 09:35:40;;;;;;;19.73;7.53;;;;;;;;;;5053658;28;20028;-77
2023/01/03 09:38:06;;;;;;;11.07;6.90;;;;;;;;;;5039355;28;20391;-78
2023/01/03 09:40:35;;;;;;;15.43;7.90;;;;;;;;;;5039211;28;20025;-77
2023/01/03 09:43:14;;;;;;;18.60;8.50;;;;;;;;;;5039394;28;20473;-78
2023/01/03 09:45:50;;;;;;;25.60;8.70;;;;;;;;;;5060439;28;20033;-78
2023/01/03 09:48:17;;;;;;;13.48;8.05;;;;;;;;;;5034722;28;20021;-77
2023/01/03 09:50:43;;;;;;;15.80;7.95;;;;;;;;;;5059175;28;20036;-78
2023/01/03 10:05:05;;;;;;;19.95;9.48;;;;;;;;;;5066212;28;20102;-78
2023/01/03 10:08:07;;;;;;;16.38;8.52;;;;;;;;;;5016537;28;20072;-79
2023/01/03 10:10:42;;;;;;;15.82;8.30;;;;;;;;;;5052135;28;20032;-79
2023/01/03 10:13:27;;;;;;;20.83;7.80;;;;;;;;;;5051219;28;20044;-78
2023/01/03 10:16:17;;;;;;;15.57;8.70;;;;;;;;;;5065118;28;20043;-76
2023/01/03 10:18:58;;;;;;;19.85;8.60;;;;;;;;;;5066165;28;20028;-78
2023/01/03 10:21:57;;;;;;;21.27;9.25;;;;;;;;;;5050019;28;20021;-78
2023/01/03 10:24:30;;;;;;;18.13;8.80;;;;;;;;;;5050830;28;20028;-79
2023/01/03 10:27:18;;;;;;;16.83;9.07;;;;;;;;;;5050923;28;20031;-77
2023/01/03 10:29:44;;;;;;;16.40;9.50;;;;;;;;;;5017232;28;20095;-80
2023/01/03 10:32:28;;;;;;;19.88;9.65;;;;;;;;;;5025294;28;20033;-79
2023/01/03 10:35:11;;;;;;;21.50;11.20;;;;;;;;;;5067105;28;20040;-78
2023/01/03 10:37:40;;;;;;;21.17;10.20;;;;;;;;;;5037630;28;20089;-79
2023/01/03 10:40:06;;;;;;;16.80;9.63;;;;;;;;;;5076362;28;20110;-79
2023/01/03 10:42:32;;;;;;;18.35;9.80;;;;;;;;;;5062372;28;20054;-78
2023/01/03 10:45:06;;;;;;;23.15;10.20;;;;;;;;;;5077916;28;20031;-79
2023/01/03 10:47:31;;;;;;;16.52;9.70;;;;;;;;;;5079088;28;20040;-79
2023/01/03 10:50:00;;;;;;;32.08;9.40;;;;;;;;;;5078678;28;20044;-79
2023/01/03 10:52:36;;;;;;;17.33;9.05;;;;;;;;;;5039722;28;20040;-77
2023/01/03 10:55:03;;;;;;;26.67;9.95;;;;;;;;;;5026090;28;20020;-78
2023/01/03 10:58:02;;;;;;;16.27;8.95;;;;;;;;;;5073331;28;20020;-78
2023/01/03 11:00:31;;;;;;;13.10;8.38;;;;;;;;;;5037762;28;20450;-81
2023/01/03 11:03:38;;;;;;;23.67;10.07;;;;;;;;;;5074596;28;20059;-79
2023/01/03 11:06:13;;;;;;;15.55;9.65;;;;;;;;;;5015484;28;20073;-80
2023/01/03 11:08:45;;;;;;;16.05;9.20;;;;;;;;;;5029871;28;20132;-81
2023/01/03 11:11:41;;;;;;;16.35;9.30;;;;;;;;;;5038659;28;20517;-85
2023/01/03 11:14:19;;;;;;;17.05;9.60;;;;;;;;;;5052186;28;20043;-78
2023/01/03 11:16:44;;;;;;;19.85;10.15;;;;;;;;;;5034508;28;20032;-81
2023/01/03 11:19:15;;;;;;;20.67;9.65;;;;;;;;;;5034320;28;20123;-81
2023/01/03 11:21:55;;;;;;;21.65;9.57;;;;;;;;;;5050639;28;20465;-82
2023/01/03 11:24:24;;;;;;;21.40;9.98;;;;;;;;;;5052336;28;20496;-79
2023/01/03 11:26:58;;;;;;;18.63;9.57;;;;;;;;;;5057038;28;20446;-80
2023/01/03 11:29:30;;;;;;;17.98;10.23;;;;;;;;;;5072617;28;20138;-80
2023/01/03 11:32:03;;;;;;;21.67;10.85;;;;;;;;;;5058602;28;20454;-80
2023/01/03 11:34:52;;;;;;;31.33;10.23;;;;;;;;;;5051201;28;20052;-81
2023/01/03 11:37:38;;;;;;;26.00;9.05;;;;;;;;;;5033253;28;20051;-79
2023/01/03 11:40:30;;;;;;;17.90;9.13;;;;;;;;;;5051358;28;20037;-79
2023/01/03 11:43:35;;;;;;;18.42;9.75;;;;;;;;;;5032650;28;20085;-80
2023/01/03 11:46:31;;;;;;;17.35;8.50;;;;;;;;;;5033488;28;20035;-79
2023/01/03 11:49:23;;;;;;;15.38;8.25;;;;;;;;;;5049461;28;20139;-80
2023/01/03 11:52:05;;;;;;;16.65;8.77;;;;;;;;;;5052306;28;20127;-79
2023/01/03 11:55:06;;;;;;;19.45;9.15;;;;;;;;;;5035403;28;20045;-78
2023/01/03 11:57:55;;;;;;;13.90;8.00;;;;;;;;;;4964507;28;20039;-78
2023/01/03 12:00:31;;;;;;;15.65;8.50;;;;;;;;;;5053611;28;20116;-80
2023/01/03 12:03:03;;;;;;;20.90;10.05;;;;;;;;;;5035425;28;20017;-79
2023/01/03 12:05:35;;;;;;;18.17;10.27;;;;;;;;;;5034892;28;20047;-79
2023/01/03 12:08:25;;;;;;;27.27;15.55;;;;;;;;;;5038529;28;20467;-79
2023/01/03 12:11:14;;;;;;;17.33;11.50;;;;;;;;;;5043305;28;20032;-79
2023/01/03 12:13:58;;;;;;;21.35;12.05;;;;;;;;;;5039182;28;20045;-79
2023/01/03 12:16:30;;;;;;;30.85;16.88;;;;;;;;;;5043512;28;20076;-79
2023/01/03 12:18:58;;;;;;;20.15;11.13;;;;;;;;;;5023033;28;20463;-78
2023/01/03 12:21:39;;;;;;;18.45;11.50;;;;;;;;;;5022452;28;20057;-79
2023/01/03 12:24:05;;;;;;;19.48;9.10;;;;;;;;;;5018934;28;20038;-80
2023/01/03 12:26:31;;;;;;;14.27;9.25;;;;;;;;;;5049584;28;20024;-80
2023/01/03 12:29:17;;;;;;;21.58;10.00;;;;;;;;;;5024869;28;20028;-80
2023/01/03 12:31:46;;;;;;;15.13;8.15;;;;;;;;;;5050241;28;20168;-81
2023/01/03 12:34:25;;;;;;;12.80;7.13;;;;;;;;;;5032696;28;20040;-79
2023/01/03 12:37:19;;;;;;;15.57;7.93;;;;;;;;;;5032394;28;20029;-79
2023/01/03 12:39:56;;;;;;;16.10;8.20;;;;;;;;;;5051869;28;20116;-79
2023/01/03 12:42:30;;;;;;;21.15;7.82;;;;;;;;;;5051513;28;20025;-78
2023/01/03 12:45:10;;;;;;;24.45;11.98;;;;;;;;;;5053831;28;20087;-79
2023/01/03 12:47:48;;;;;;;;;;;;;;;;;;5054290;28;20068;-79
2023/01/03 12:50:32;;;;;;;14.90;7.68;;;;;;;;;;5051388;28;20318;-79
2023/01/03 12:53:24;;;;;;;17.40;8.07;;;;;;;;;;5047653;28;20021;-78
2023/01/03 12:56:13;;;;;;;16.80;9.55;;;;;;;;;;5038213;28;20078;-78
2023/01/03 12:58:38;;;;;;;17.27;10.00;;;;;;;;;;5048502;28;20064;-79
2023/01/03 13:01:16;;;;;;;24.35;10.40;;;;;;;;;;5050608;28;20072;-79
2023/01/03 13:03:48;;;;;;;13.35;8.13;;;;;;;;;;5036341;28;20036;-79
2023/01/03 13:06:19;;;;;;;13.88;8.75;;;;;;;;;;5036808;28;20108;-78
2023/01/03 13:08:59;;;;;;;20.38;10.43;;;;;;;;;;5021658;28;20182;-78
2023/01/03 13:11:30;;;;;;;17.95;9.90;;;;;;;;;;5038744;28;20041;-78
2023/01/03 13:13:59;;;;;;;17.92;10.25;;;;;;;;;;5054914;28;20473;-78
2023/01/03 13:16:36;;;;;;;20.98;10.30;;;;;;;;;;5038231;28;20174;-78
2023/01/03 13:19:20;;;;;;;19.75;10.65;;;;;;;;;;5044334;28;20037;-82
2023/01/03 13:21:52;;;;;;;19.27;9.73;;;;;;;;;;5053288;28;20028;-83
2023/01/03 13:24:42;;;;;;;18.48;9.18;;;;;;;;;;5054076;28;20466;-83
2023/01/03 13:27:20;;;;;;;;;;;;;;;;;;5055627;28;20025;-84
2023/01/03 13:29:48;;;;;;;21.67;10.98;;;;;;;;;;5054079;28;19923;-82
2023/01/03 13:32:24;;;;;;;18.60;9.88;;;;;;;;;;5053881;28;20062;-83
2023/01/03 13:34:53;;;;;;;21.98;9.57;;;;;;;;;;5036980;28;20374;-83
2023/01/03 13:37:40;;;;;;;17.98;8.93;;;;;;;;;;5053295;28;20037;-83
2023/01/03 13:40:12;;;;;;;16.55;8.63;;;;;;;;;;5053057;28;20073;-84
2023/01/03 13:42:38;;;;;;;21.33;10.07;;;;;;;;;;5037029;28;20033;-82
2023/01/03 13:45:16;;;;;;;19.20;9.40;;;;;;;;;;5053272;28;20040;-84
2023/01/03 13:47:46;;;;;;;18.25;10.18;;;;;;;;;;5053770;28;20033;-83
2023/01/03 13:50:25;;;;;;;20.17;10.70;;;;;;;;;;5036283;28;20036;-83
2023/01/03 13:53:09;;;;;;;19.93;10.53;;;;;;;;;;5035932;28;20412;-84
2023/01/03 13:55:46;;;;;;;18.98;10.02;;;;;;;;;;5036229;28;20699;-84
2023/01/03 13:58:26;;;;;;;20.65;10.20;;;;;;;;;;5038335;28;20044;-83
2023/01/03 14:00:59;;;;;;;22.25;10.93;;;;;;;;;;5054688;28;20033;-82
2023/01/03 14:04:02;;;;;;;19.00;10.00;;;;;;;;;;5020617;28;20422;-83
2023/01/03 14:06:45;;;;;;;39.30;19.75;;;;;;;;;;5036665;28;20025;-84
2023/01/03 14:09:26;;;;;;;25.73;14.32;;;;;;;;;;5020314;28;20087;-84
2023/01/03 14:12:29;;;;;;;56.05;33.55;;;;;;;;;;5036241;28;20033;-83
2023/01/03 14:14:55;;;;;;;42.70;21.38;;;;;;;;;;5054558;28;20037;-83
2023/01/03 14:17:29;;;;;;;58.38;31.52;;;;;;;;;;5019969;28;20087;-84
2023/01/03 14:19:57;;;;;;;38.03;23.48;;;;;;;;;;5036275;28;20040;-83
2023/01/03 14:22:25;;;;;;;57.85;35.15;;;;;;;;;;5020360;28;20033;-84
2023/01/03 14:24:53;;;;;;;28.13;15.52;;;;;;;;;;5036844;28;20509;-84
2023/01/03 14:27:20;;;;;;;26.63;14.38;;;;;;;;;;5020603;28;20385;-82
2023/01/03 14:29:51;;;;;;;28.20;13.00;;;;;;;;;;5007016;28;20044;-81
2023/01/03 14:32:21;;;;;;;24.65;13.65;;;;;;;;;;5024986;28;20115;-84
2023/01/03 14:34:49;;;;;;;27.65;14.98;;;;;;;;;;5076214;28;20040;-84
2023/01/03 14:37:17;;;;;;;31.27;17.80;;;;;;;;;;5058015;28;20033;-82
2023/01/03 14:39:54;;;;;;;37.17;19.80;;;;;;;;;;5067197;28;20045;-81
2023/01/03 14:42:20;;;;;;;35.97;17.02;;;;;;;;;;5091773;28;20052;-81
2023/01/03 14:44:50;;;;;;;45.03;18.77;;;;;;;;;;5054576;28;20059;-83
2023/01/03 14:47:16;;;;;;;29.92;16.85;;;;;;;;;;5056825;28;20028;-83
2023/01/03 14:49:44;;;;;;;30.08;15.88;;;;;;;;;;5040499;28;20037;-83
2023/01/03 14:52:17;;;;;;;30.92;15.98;;;;;;;;;;5045085;28;20042;-83
2023/01/03 14:54:45;;;;;;;28.23;15.93;;;;;;;;;;5041227;28;20032;-83
2023/01/03 14:57:22;;;;;;;36.63;15.20;;;;;;;;;;5039188;28;20040;-83
2023/01/03 14:59:48;;;;;;;32.90;15.18;;;;;;;;;;5056545;28;20047;-82
2023/01/03 15:02:14;;;;;;;29.45;15.18;;;;;;;;;;5039421;28;20033;-83
2023/01/03 15:04:43;;;;;;;27.70;15.00;;;;;;;;;;5040104;28;20048;-83
2023/01/03 15:07:48;;;;;;;32.28;17.40;;;;;;;;;;5043338;28;20446;-83
2023/01/03 15:10:34;;;;;;;46.47;20.15;;;;;;;;;;4960381;28;20055;-84
2023/01/03 15:13:00;;;;;;;54.17;24.10;;;;;;;;;;4976935;28;20534;-83
2023/01/03 15:15:32;;;;;;;64.95;28.27;;;;;;;;;;5004692;28;20067;-83
2023/01/03 15:18:01;;;;;;;58.47;25.77;;;;;;;;;;5060035;28;20040;-83
2023/01/03 15:20:37;;;;;;;78.47;39.90;;;;;;;;;;5059724;28;20102;-83
2023/01/03 15:23:03;;;;;;;78.80;39.45;;;;;;;;;;5046994;28;20079;-83
2023/01/03 15:25:39;;;;;;;71.43;36.15;;;;;;;;;;5086783;28;20029;-83
2023/01/03 15:28:34;;;;;;;65.05;32.90;;;;;;;;;;5045346;28;20401;-83
2023/01/03 15:31:22;;;;;;;76.13;35.58;;;;;;;;;;5057024;28;20032;-83
2023/01/03 15:34:19;;;;;;;74.40;34.45;;;;;;;;;;5077507;28;20060;-83
2023/01/03 15:36:53;;;;;;;72.70;35.97;;;;;;;;;;5059356;28;20082;-83
2023/01/03 15:39:20;;;;;;;66.53;30.75;;;;;;;;;;5076738;28;20534;-83
2023/01/03 15:44:30;;;;;;;58.97;28.17;;;;;;;;;;5047653;28;20031;-82
2023/01/03 15:46:57;;;;;;;59.22;30.67;;;;;;;;;;5059344;28;20033;-83
2023/01/03 15:49:23;;;;;;;66.95;31.10;;;;;;;;;;5059806;28;20082;-83
2023/01/03 15:51:48;;;;;;;54.58;27.85;;;;;;;;;;5059917;28;20054;-82
2023/01/03 15:54:15;;;;;;;54.22;26.35;;;;;;;;;;5059378;28;20112;-83